Time;durP1;ratioP1;P1;durP2;ratioP2;P2;SDS_P1;SDS_P2;PMS_P1;PMS_P2;Temp;Humidity;BMP_temperature;BMP_pressure;BME280_temperature;BME280_humidity;BME280_pressure;Samples;Min_cycle;Max_cycle;Signal;HPM_P1;HPM_P2
2023/08/24 00:02:45;;;;;;;10.27;2.40;;;;;;;18.05;88.98;100853.09;4869709;29;20064;-81
2023/08/24 00:05:53;;;;;;;10.10;2.53;;;;;;;18.02;89.29;100855.97;4867619;29;20101;-81
2023/08/24 00:08:59;;;;;;;8.18;2.10;;;;;;;18.02;89.16;100848.03;4869574;29;20193;-81
2023/08/24 00:12:02;;;;;;;9.13;2.47;;;;;;;17.95;89.20;100844.19;4869684;29;20065;-82
2023/08/24 00:15:08;;;;;;;9.52;2.47;;;;;;;17.97;89.31;100843.13;4870251;29;20441;-81
2023/08/24 00:18:12;;;;;;;5.90;2.50;;;;;;;17.91;89.62;100845.41;4872596;29;20045;-82
2023/08/24 00:21:22;;;;;;;9.13;2.55;;;;;;;17.87;89.84;100853.59;4873082;29;20052;-81
2023/08/24 00:24:26;;;;;;;5.35;2.20;;;;;;;17.87;89.49;100856.22;4871655;29;20411;-80
2023/08/24 00:27:29;;;;;;;6.03;2.53;;;;;;;17.87;89.38;100856.22;4872027;29;20105;-81
2023/08/24 00:30:33;;;;;;;8.43;2.67;;;;;;;17.84;89.28;100860.91;4872864;29;20098;-82
2023/08/24 00:33:36;;;;;;;5.65;1.98;;;;;;;17.86;89.24;100867.75;4873277;29;20041;-82
2023/08/24 00:36:39;;;;;;;7.40;2.10;;;;;;;17.79;89.58;100866.56;4872510;29;20109;-84
2023/08/24 00:39:44;;;;;;;9.25;2.35;;;;;;;17.76;89.48;100865.91;4873351;29;20047;-85
2023/08/24 00:42:47;;;;;;;10.70;2.90;;;;;;;17.71;90.12;100870.72;4866203;29;20517;-83
2023/08/24 00:45:51;;;;;;;12.45;2.50;;;;;;;17.71;89.81;100871.56;4871892;29;20109;-83
2023/08/24 00:48:57;;;;;;;8.02;1.90;;;;;;;17.71;89.71;100874.22;4872836;29;20136;-84
2023/08/24 00:52:01;;;;;;;9.68;2.70;;;;;;;17.65;89.98;100874.69;4872855;29;20526;-83
2023/08/24 00:55:06;;;;;;;10.23;2.25;;;;;;;17.61;90.08;100868.78;4872848;29;20053;-84
2023/08/24 00:58:10;;;;;;;5.63;2.30;;;;;;;17.60;90.01;100861.78;4870736;29;20166;-84
2023/08/24 01:01:13;;;;;;;6.55;2.53;;;;;;;17.53;90.34;100862.41;4871046;29;20074;-84
2023/08/24 01:04:18;;;;;;;7.97;2.17;;;;;;;17.63;89.92;100866.00;4871629;29;20044;-84
2023/08/24 01:07:22;;;;;;;5.43;2.15;;;;;;;17.60;89.61;100860.97;4870096;29;20124;-83
2023/08/24 01:10:47;;;;;;;5.88;2.10;;;;;;;17.52;90.27;100856.28;4873151;29;20113;-84
2023/08/24 01:14:00;;;;;;;11.20;2.47;;;;;;;17.43;90.61;100856.97;4870484;29;20107;-83
2023/08/24 01:17:08;;;;;;;9.48;2.55;;;;;;;17.42;90.59;100858.78;4871402;29;20104;-83
2023/08/24 01:20:17;;;;;;;8.38;2.17;;;;;;;17.42;90.88;100857.91;4871253;29;20087;-83
2023/08/24 01:23:46;;;;;;;6.82;2.40;;;;;;;17.31;90.65;100861.38;4872696;29;20052;-83
2023/08/24 01:26:50;;;;;;;8.80;2.17;;;;;;;17.29;91.37;100855.34;4869820;29;20116;-84
2023/08/24 01:29:56;;;;;;;6.55;2.50;;;;;;;17.47;90.87;100852.28;4870789;29;20468;-82
2023/08/24 01:38:06;;;;;;;6.20;2.45;;;;;;;17.38;90.14;100862.59;4861755;29;20048;-85
2023/08/24 01:41:36;;;;;;;6.03;2.45;;;;;;;17.36;90.66;100867.16;4861377;29;20132;-83
2023/08/24 01:44:47;;;;;;;6.93;2.30;;;;;;;17.55;90.00;100853.41;4862200;29;20464;-82
2023/08/24 01:47:53;;;;;;;8.95;2.22;;;;;;;17.46;90.03;100854.09;4862186;29;20057;-82
2023/08/24 01:50:58;;;;;;;9.43;2.47;;;;;;;17.41;90.25;100861.50;4861588;29;20056;-83
2023/08/24 01:54:06;;;;;;;6.07;2.22;;;;;;;17.39;90.51;100848.44;4862180;29;20116;-82
2023/08/24 01:57:10;;;;;;;9.50;3.30;;;;;;;17.40;90.11;100849.25;4862164;29;20109;-82
2023/08/24 02:00:15;;;;;;;9.10;2.10;;;;;;;17.36;90.19;100842.53;4861930;29;20052;-83
2023/08/24 02:03:18;;;;;;;4.88;1.80;;;;;;;17.24;90.59;100838.16;4861938;29;20048;-83
2023/08/24 02:06:27;;;;;;;7.72;2.72;;;;;;;17.23;90.79;100832.03;4861322;29;20060;-84
2023/08/24 02:14:39;;;;;;;6.47;2.30;;;;;;;17.17;90.21;100824.56;4862060;29;20151;-84
2023/08/24 02:17:43;;;;;;;5.97;2.80;;;;;;;17.27;90.04;100815.00;4862039;29;20420;-84
2023/08/24 02:20:47;;;;;;;4.55;1.73;;;;;;;17.24;89.20;100812.59;4860841;29;20048;-83
2023/08/24 02:23:51;;;;;;;5.82;1.90;;;;;;;17.13;89.63;100802.84;4871575;29;20052;-85
2023/08/24 02:26:54;;;;;;;7.18;2.40;;;;;;;17.01;89.97;100805.56;4860924;29;20136;-84
2023/08/24 02:29:58;;;;;;;6.57;2.20;;;;;;;16.99;90.45;100804.81;4871468;29;20767;-84
2023/08/24 02:33:06;;;;;;;8.15;2.35;;;;;;;16.95;90.34;100802.41;4861125;29;20052;-85
2023/08/24 02:36:10;;;;;;;4.88;1.70;;;;;;;16.93;90.75;100796.38;4861462;29;20451;-85
2023/08/24 02:39:16;;;;;;;15.73;2.83;;;;;;;17.01;90.49;100808.19;4859970;29;20181;-85
2023/08/24 02:42:20;;;;;;;12.18;3.15;;;;;;;17.13;89.76;100794.03;4860704;29;20077;-84
2023/08/24 02:45:23;;;;;;;7.72;2.58;;;;;;;16.99;89.76;100792.44;4860547;29;20051;-84
2023/08/24 02:48:27;;;;;;;4.78;2.05;;;;;;;16.88;90.91;100789.75;4860287;29;20057;-84
2023/08/24 02:51:32;;;;;;;7.05;2.28;;;;;;;16.87;90.84;100782.78;4861415;29;20084;-84
2023/08/24 02:54:36;;;;;;;6.78;2.80;;;;;;;16.89;90.46;100784.38;4861117;29;20050;-84
2023/08/24 02:57:39;;;;;;;7.28;2.00;;;;;;;16.89;90.11;100784.38;4860330;29;20048;-84
2023/08/24 03:00:43;;;;;;;10.27;2.40;;;;;;;16.82;90.30;100791.06;4861016;29;20048;-85
2023/08/24 03:03:46;;;;;;;8.07;2.03;;;;;;;16.64;91.33;100781.81;4860259;29;20093;-85
2023/08/24 03:06:53;;;;;;;6.85;2.33;;;;;;;16.66;92.05;100769.38;4860995;29;20056;-84
2023/08/24 03:10:05;;;;;;;5.45;2.75;;;;;;;16.70;91.52;100781.38;4860216;29;20101;-84
2023/08/24 03:13:09;;;;;;;10.75;2.42;;;;;;;16.65;91.90;100783.50;4870698;29;20064;-84
2023/08/24 03:16:12;;;;;;;12.07;3.15;;;;;;;16.80;91.05;100782.41;4860600;29;20526;-84
2023/08/24 03:19:17;;;;;;;3.70;2.30;;;;;;;16.98;90.39;100768.81;4859894;29;20120;-84
2023/08/24 03:22:21;;;;;;;8.15;2.78;;;;;;;16.92;90.26;100767.44;4859951;29;20097;-83
2023/08/24 03:25:26;;;;;;;6.70;2.50;;;;;;;16.77;90.72;100766.78;4860675;29;20047;-84
2023/08/24 03:28:30;;;;;;;8.98;2.65;;;;;;;16.72;91.35;100769.75;4870610;29;20060;-84
2023/08/24 03:31:34;;;;;;;7.93;2.03;;;;;;;16.75;91.60;100763.41;4860304;29;20051;-83
2023/08/24 03:34:38;;;;;;;4.07;2.00;;;;;;;16.85;91.30;100753.03;4860437;29;20124;-84
2023/08/24 03:37:44;;;;;;;8.38;2.25;;;;;;;16.87;90.76;100741.38;4859693;29;20114;-84
2023/08/24 03:40:47;;;;;;;5.05;1.90;;;;;;;16.82;90.87;100740.88;4860481;29;20056;-83
2023/08/24 03:43:50;;;;;;;6.13;2.20;;;;;;;16.84;91.36;100743.41;4860421;29;20101;-83
2023/08/24 03:46:57;;;;;;;7.97;2.58;;;;;;;16.85;91.17;100730.09;4859606;29;20448;-83
2023/08/24 03:50:00;;;;;;;9.70;2.35;;;;;;;16.84;91.54;100723.13;4859418;29;20049;-83
2023/08/24 03:53:05;;;;;;;5.60;1.90;;;;;;;16.82;91.19;100717.13;4859436;29;20056;-83
2023/08/24 03:56:09;;;;;;;16.15;2.55;;;;;;;16.81;91.33;100723.34;4870108;29;20052;-83
2023/08/24 03:59:13;;;;;;;4.45;2.10;;;;;;;16.79;91.36;100717.34;4859216;29;20066;-83
2023/08/24 04:02:16;;;;;;;7.38;1.92;;;;;;;16.90;90.55;100703.31;4859386;29;20178;-83
2023/08/24 04:05:23;;;;;;;5.88;2.03;;;;;;;16.86;90.71;100702.72;4859671;29;20129;-85
2023/08/24 04:08:26;;;;;;;8.90;2.67;;;;;;;16.84;91.23;100699.34;4860346;29;20069;-83
2023/08/24 04:11:31;;;;;;;3.85;2.00;;;;;;;16.82;91.30;100711.00;4859072;29;20065;-83
2023/08/24 04:14:35;;;;;;;5.53;2.55;;;;;;;16.87;91.27;100725.53;4859409;29;20056;-83
2023/08/24 04:17:38;;;;;;;3.63;1.90;;;;;;;16.93;90.47;100743.56;4859662;29;20086;-83
2023/08/24 04:20:42;;;;;;;4.78;2.60;;;;;;;16.91;90.84;100758.69;4859374;29;20452;-83
2023/08/24 04:23:45;;;;;;;6.53;2.70;;;;;;;17.05;90.80;100775.28;4859970;29;20045;-85
2023/08/24 04:26:49;;;;;;;6.43;2.30;;;;;;;17.04;90.75;100794.72;4860207;29;20101;-85
2023/08/24 04:29:53;;;;;;;10.18;2.45;;;;;;;17.07;91.12;100805.06;4860240;29;20052;-85
2023/08/24 04:32:56;;;;;;;4.68;2.38;;;;;;;17.02;91.48;100821.28;4860077;29;20105;-85
2023/08/24 04:36:03;;;;;;;5.38;2.20;;;;;;;17.06;92.07;100835.09;4859726;29;20056;-84
2023/08/24 04:39:06;;;;;;;6.13;1.95;;;;;;;17.19;91.96;100867.56;4859818;29;20129;-81
2023/08/24 04:42:10;;;;;;;7.80;2.25;;;;;;;17.28;91.89;100869.53;4858878;29;20156;-81
2023/08/24 04:45:14;;;;;;;14.15;2.92;;;;;;;17.05;92.35;100878.34;4857710;29;20543;-81
2023/08/24 04:48:17;;;;;;;5.45;2.20;;;;;;;17.09;93.52;100890.34;4858127;29;20101;-81
2023/08/24 04:51:23;;;;;;;5.75;2.55;;;;;;;17.17;93.41;100886.19;4858072;29;20064;-82
2023/08/24 04:54:26;;;;;;;9.48;2.45;;;;;;;17.31;93.16;100887.78;4858234;29;20404;-83
2023/08/24 04:57:29;;;;;;;4.70;2.63;;;;;;;17.31;93.44;100887.78;4858219;29;20076;-84
2023/08/24 05:00:33;;;;;;;4.65;2.40;;;;;;;17.33;93.49;100890.34;4858070;29;20052;-84
2023/08/24 05:03:37;;;;;;;9.88;2.95;;;;;;;17.38;94.40;100889.00;4861515;29;20423;-84
2023/08/24 05:06:40;;;;;;;6.38;2.13;;;;;;;17.39;94.91;100896.00;4861040;29;20743;-83
2023/08/24 05:09:44;;;;;;;7.43;2.38;;;;;;;17.48;94.41;100898.91;4860273;29;20105;-83
2023/08/24 05:12:47;;;;;;;11.57;2.20;;;;;;;17.51;94.65;100896.88;4860669;29;20497;-83
2023/08/24 05:15:53;;;;;;;4.97;2.15;;;;;;;17.61;93.60;100889.06;4859739;29;20069;-82
2023/08/24 05:18:59;;;;;;;5.65;2.22;;;;;;;17.50;94.25;100891.72;4869852;29;20141;-84
2023/08/24 05:22:02;;;;;;;5.80;2.10;;;;;;;17.52;94.18;100889.81;4861079;29;20113;-84
2023/08/24 05:25:06;;;;;;;12.02;2.80;;;;;;;17.63;93.23;100895.94;4861189;29;20072;-84
2023/08/24 05:28:09;;;;;;;6.75;2.47;;;;;;;17.73;93.10;100896.09;4860686;29;20176;-84
2023/08/24 05:31:16;;;;;;;9.93;2.40;;;;;;;17.78;92.09;100896.63;4861104;29;20129;-84
2023/08/24 05:34:19;;;;;;;8.88;2.13;;;;;;;17.67;92.84;100907.13;4860192;29;20105;-84
2023/08/24 05:37:24;;;;;;;7.97;2.67;;;;;;;17.57;93.87;100908.78;4861730;29;20158;-85
2023/08/24 05:40:29;;;;;;;5.85;2.78;;;;;;;17.53;94.76;100896.75;4861023;29;20393;-84
2023/08/24 05:43:35;;;;;;;6.82;2.30;;;;;;;17.56;95.27;100891.25;4861055;29;20571;-86
2023/08/24 05:46:38;;;;;;;4.50;2.30;;;;;;;17.57;95.51;100869.13;4874285;29;20420;-87
2023/08/24 05:49:41;;;;;;;6.95;2.70;;;;;;;17.60;96.07;100861.78;4874124;29;20515;-86
2023/08/24 05:52:48;;;;;;;5.00;2.35;;;;;;;17.63;96.74;100856.28;4870211;29;20137;-86
2023/08/24 05:55:57;;;;;;;5.35;2.50;;;;;;;17.64;96.84;100849.19;4871602;29;20522;-86
2023/08/24 05:59:02;;;;;;;5.88;2.85;;;;;;;17.62;95.98;100849.31;4870013;29;20562;-84
2023/08/24 06:02:11;;;;;;;7.43;2.90;;;;;;;17.56;96.10;100848.94;4874190;29;20176;-72
2023/08/24 06:06:05;;;;;;;7.75;2.85;;;;;;;17.56;95.96;100846.31;4869453;29;20047;-72
2023/08/24 06:09:12;;;;;;;4.82;2.47;;;;;;;17.59;96.41;100848.72;4872731;29;20662;-71
2023/08/24 06:12:45;;;;;;;6.95;2.67;;;;;;;17.67;95.96;100833.09;4871406;29;20064;-71
2023/08/24 06:15:49;;;;;;;8.57;2.58;;;;;;;17.64;96.19;100826.25;4870790;29;20463;-72
2023/08/24 06:18:52;;;;;;;6.90;2.47;;;;;;;17.71;97.05;100826.63;4874818;29;20052;-70
2023/08/24 06:21:56;;;;;;;9.88;2.95;;;;;;;17.74;97.29;100814.94;4878517;29;20056;-70
2023/08/24 06:25:00;;;;;;;7.05;2.65;;;;;;;17.75;98.43;100808.69;4878191;29;20097;-70
2023/08/24 06:28:04;;;;;;;4.85;2.28;;;;;;;17.74;98.53;100784.06;4878572;29;20408;-68
2023/08/24 06:31:10;;;;;;;10.23;2.58;;;;;;;17.91;98.57;100744.88;4878239;29;20056;-69
2023/08/24 06:34:13;;;;;;;8.75;2.83;;;;;;;17.89;97.19;100735.25;4878253;29;20120;-69
2023/08/24 06:37:16;;;;;;;8.32;2.85;;;;;;;17.92;97.57;100743.91;4878059;29;20048;-69
2023/08/24 06:40:20;;;;;;;6.80;2.70;;;;;;;17.95;98.15;100743.66;4876831;29;20541;-68
2023/08/24 06:43:23;;;;;;;8.52;2.97;;;;;;;17.91;98.41;100747.53;4878145;29;20048;-69
2023/08/24 06:46:26;;;;;;;5.65;2.58;;;;;;;17.88;99.22;100749.44;4877967;29;20055;-71
2023/08/24 06:49:30;;;;;;;9.73;3.00;;;;;;;17.97;98.38;100726.72;4877815;29;20084;-68
2023/08/24 06:52:33;;;;;;;5.57;2.55;;;;;;;18.04;98.44;100721.78;4877660;29;20067;-68
2023/08/24 06:55:37;;;;;;;8.73;2.35;;;;;;;18.11;98.57;100717.66;4877682;29;20052;-68
2023/08/24 06:58:40;;;;;;;8.63;2.95;;;;;;;18.10;98.57;100716.00;4877558;29;20112;-66
2023/08/24 07:01:44;;;;;;;8.07;2.78;;;;;;;18.29;97.85;100713.53;4877681;29;20534;-69
2023/08/24 07:04:48;;;;;;;16.27;5.15;;;;;;;18.46;95.79;100711.31;4877612;29;20252;-69
2023/08/24 07:07:51;;;;;;;10.30;3.60;;;;;;;18.60;94.54;100721.56;4877533;29;20083;-80
2023/08/24 07:10:54;;;;;;;18.52;6.95;;;;;;;18.67;93.91;100728.06;4877523;29;20051;-84
2023/08/24 07:14:23;;;;;;;9.15;3.90;;;;;;;18.71;93.49;100716.25;4877767;29;20052;-90
2023/08/24 07:17:28;;;;;;;10.25;4.10;;;;;;;18.78;93.72;100703.34;4878328;29;20116;-81
2023/08/24 07:20:37;;;;;;;45.65;17.90;;;;;;;18.85;95.38;100701.88;4877540;29;20064;-82
2023/08/24 07:23:41;;;;;;;10.30;4.45;;;;;;;18.92;94.59;100691.59;4876010;29;20047;-82
2023/08/24 07:26:48;;;;;;;11.25;3.63;;;;;;;18.98;93.05;100704.31;4878047;29;20127;-81
2023/08/24 07:30:05;;;;;;;9.40;3.67;;;;;;;19.04;93.59;100691.38;4877243;29;20055;-78
2023/08/24 07:33:11;;;;;;;29.63;11.30;;;;;;;19.08;93.70;100689.34;4877671;29;20206;-79
2023/08/24 07:36:15;;;;;;;52.70;22.80;;;;;;;19.12;94.41;100677.50;4877125;29;20100;-79
2023/08/24 07:39:18;;;;;;;14.95;6.78;;;;;;;19.09;95.35;100671.63;4877291;29;20067;-79
2023/08/24 07:42:22;;;;;;;7.13;3.33;;;;;;;19.05;96.35;100673.69;4876828;29;20128;-79
2023/08/24 07:45:25;;;;;;;35.33;11.20;;;;;;;19.07;97.64;100644.41;4877839;29;20085;-78
2023/08/24 07:48:30;;;;;;;47.17;18.85;;;;;;;19.13;97.22;100641.22;4877367;29;20077;-81
2023/08/24 07:51:36;;;;;;;38.80;15.90;;;;;;;19.08;97.83;100625.72;4877365;29;20184;-81
2023/08/24 07:54:39;;;;;;;10.07;4.05;;;;;;;19.15;97.23;100629.53;4876983;29;20194;-81
2023/08/24 08:01:49;;;;;;;8.10;3.00;;;;;;;19.27;95.07;100623.16;4855081;29;20100;-82
2023/08/24 08:04:57;;;;;;;7.55;2.75;;;;;;;19.35;94.29;100624.28;4856167;29;20501;-81
2023/08/24 08:08:01;;;;;;;7.38;3.13;;;;;;;19.45;93.90;100625.16;4844824;29;20181;-82
2023/08/24 08:11:08;;;;;;;9.77;2.95;;;;;;;19.54;93.34;100621.69;4857970;29;20143;-82
2023/08/24 08:14:11;;;;;;;6.70;3.05;;;;;;;19.62;93.87;100602.44;4858059;29;20056;-82
2023/08/24 08:17:33;;;;;;;7.82;3.03;;;;;;;19.69;94.16;100601.81;4858595;29;20068;-83
2023/08/24 08:20:36;;;;;;;6.30;2.70;;;;;;;19.85;94.15;100616.34;4858820;29;20074;-82
2023/08/24 08:23:45;;;;;;;10.18;2.78;;;;;;;19.96;93.44;100608.25;4858576;29;20148;-82
2023/08/24 08:26:48;;;;;;;6.80;2.97;;;;;;;20.01;92.83;100611.34;4858817;29;20079;-82
2023/08/24 08:29:52;;;;;;;9.07;2.67;;;;;;;20.11;92.63;100601.56;4858895;29;20158;-80
2023/08/24 08:32:55;;;;;;;7.60;2.83;;;;;;;20.20;92.81;100600.72;4858745;29;20052;-78
2023/08/24 08:36:00;;;;;;;6.15;3.33;;;;;;;20.28;93.02;100604.47;4861081;29;20056;-72
2023/08/24 08:39:06;;;;;;;10.07;3.65;;;;;;;20.39;92.79;100607.00;4860690;29;20109;-82
2023/08/24 08:42:14;;;;;;;6.03;2.72;;;;;;;20.48;91.85;100597.31;4860129;29;20522;-79
2023/08/24 08:45:26;;;;;;;11.77;3.45;;;;;;;20.57;90.68;100592.00;4860056;29;20056;-79
2023/08/24 08:48:35;;;;;;;5.43;2.50;;;;;;;20.71;91.25;100598.72;4860069;29;20048;-87
2023/08/24 08:51:43;;;;;;;7.28;2.80;;;;;;;20.86;90.69;100609.69;4860665;29;20063;-77
2023/08/24 08:54:47;;;;;;;6.28;2.67;;;;;;;20.98;89.75;100600.56;4861976;29;20133;-76
2023/08/24 08:57:58;;;;;;;6.22;2.88;;;;;;;21.06;87.68;100603.34;4860185;29;20483;-80
2023/08/24 09:01:05;;;;;;;6.65;2.53;;;;;;;21.19;88.41;100591.56;4843225;29;20593;-76
2023/08/24 09:04:08;;;;;;;8.77;2.90;;;;;;;21.28;87.71;100585.31;4843514;29;20183;-80
2023/08/24 09:07:14;;;;;;;8.98;2.90;;;;;;;21.37;88.45;100576.47;4843377;29;20113;-85
2023/08/24 09:10:17;;;;;;;7.68;2.95;;;;;;;21.45;87.75;100560.63;4843491;29;20044;-81
2023/08/24 09:13:21;;;;;;;8.07;2.55;;;;;;;21.55;87.69;100558.75;4843187;29;20092;-66
2023/08/24 09:16:29;;;;;;;7.13;3.03;;;;;;;21.70;87.62;100558.22;4843068;29;20060;-66
2023/08/24 09:19:35;;;;;;;5.35;2.45;;;;;;;21.85;85.89;100545.22;4842943;29;20057;-67
2023/08/24 09:22:44;;;;;;;13.10;3.08;;;;;;;21.95;84.16;100529.97;4842678;29;20064;-72
2023/08/24 09:25:48;;;;;;;6.45;3.03;;;;;;;22.04;83.89;100521.91;4842941;29;20075;-67
2023/08/24 09:28:51;;;;;;;8.32;3.67;;;;;;;22.16;82.52;100516.38;4842550;29;20046;-67
2023/08/24 09:31:54;;;;;;;6.68;2.70;;;;;;;22.28;83.16;100507.16;4841881;29;20045;-68
2023/08/24 09:35:08;;;;;;;6.30;3.05;;;;;;;22.41;82.50;100499.56;4842611;29;20404;-68
2023/08/24 09:38:26;;;;;;;5.72;2.88;;;;;;;22.54;79.65;100483.16;4842549;29;20068;-68
2023/08/24 09:41:50;;;;;;;8.73;2.58;;;;;;;22.63;77.02;100468.06;4842657;29;20504;-67
2023/08/24 09:44:53;;;;;;;7.32;3.05;;;;;;;22.71;78.26;100465.41;4842567;29;20190;-64
2023/08/24 09:47:56;;;;;;;5.75;2.30;;;;;;;22.77;78.27;100461.25;4841976;29;20483;-64
2023/08/24 09:51:04;;;;;;;7.25;2.75;;;;;;;22.93;79.53;100462.19;4842621;29;20049;-64
2023/08/24 09:54:09;;;;;;;6.32;2.47;;;;;;;23.12;78.81;100468.25;4842818;29;20527;-66
2023/08/24 09:57:13;;;;;;;5.82;2.40;;;;;;;23.37;78.32;100463.78;4842695;29;20052;-65
2023/08/24 10:00:16;;;;;;;6.88;2.65;;;;;;;23.51;76.10;100449.78;4841328;29;20132;-67
2023/08/24 10:03:24;;;;;;;6.65;3.05;;;;;;;23.67;75.22;100454.28;4842549;29;20432;-66
2023/08/24 10:06:29;;;;;;;6.65;2.70;;;;;;;23.77;72.33;100448.81;4842213;29;20072;-65
2023/08/24 10:10:03;;;;;;;7.55;2.60;;;;;;;23.85;73.39;100441.63;4841597;29;20045;-65
2023/08/24 10:13:18;;;;;;;6.20;2.90;;;;;;;24.05;72.52;100454.63;4842458;29;20110;-67
2023/08/24 10:16:24;;;;;;;5.97;2.78;;;;;;;24.20;72.18;100450.25;4841449;29;20211;-69
2023/08/24 10:19:29;;;;;;;7.22;2.97;;;;;;;24.25;70.71;100447.94;4841975;29;20106;-82
2023/08/24 10:22:34;;;;;;;6.18;2.22;;;;;;;24.35;71.25;100443.22;4842046;29;20057;-75
2023/08/24 10:25:42;;;;;;;4.95;2.40;;;;;;;24.38;70.61;100452.72;4842261;29;20068;-76
2023/08/24 10:28:46;;;;;;;3.65;2.38;;;;;;;24.47;71.38;100446.38;4842175;29;20056;-76
2023/08/24 10:31:50;;;;;;;5.65;2.40;;;;;;;24.55;68.71;100443.69;4842004;29;20084;-77
2023/08/24 10:34:53;;;;;;;5.95;2.40;;;;;;;24.58;67.44;100439.81;4842212;29;20530;-75
2023/08/24 10:37:59;;;;;;;4.47;1.85;;;;;;;24.73;68.85;100435.41;4842100;29;20092;-76
2023/08/24 10:41:07;;;;;;;7.35;2.20;;;;;;;24.83;68.75;100429.84;4842169;29;20049;-76
2023/08/24 10:44:22;;;;;;;10.05;2.60;;;;;;;24.87;69.03;100431.16;4836713;29;20053;-76
2023/08/24 10:47:28;;;;;;;7.50;2.83;;;;;;;24.98;67.74;100435.28;4824295;29;20078;-76
2023/08/24 10:50:31;;;;;;;6.65;2.13;;;;;;;25.06;65.82;100449.44;4833525;29;20130;-76
2023/08/24 10:53:38;;;;;;;6.72;2.42;;;;;;;25.10;65.34;100446.41;4823580;29;20045;-75
2023/08/24 10:56:56;;;;;;;6.30;2.20;;;;;;;25.18;65.28;100430.34;4823511;29;20108;-75
2023/08/24 11:00:06;;;;;;;3.88;2.08;;;;;;;25.24;63.42;100441.19;4822036;29;20061;-75
2023/08/24 11:03:10;;;;;;;6.93;2.45;;;;;;;25.29;59.62;100436.09;4823415;29;20056;-77
2023/08/24 11:06:28;;;;;;;4.13;1.95;;;;;;;25.27;58.20;100437.28;4823147;29;20183;-74
2023/08/24 11:09:50;;;;;;;7.63;3.20;;;;;;;25.39;64.04;100432.38;4823514;29;20103;-75
2023/08/24 11:13:14;;;;;;;8.38;2.75;;;;;;;25.49;62.94;100425.78;4837237;29;20084;-77
2023/08/24 11:16:38;;;;;;;7.72;2.10;;;;;;;25.55;61.40;100418.00;4827503;29;20106;-74
2023/08/24 11:19:52;;;;;;;4.43;2.25;;;;;;;25.58;60.34;100413.13;4828922;29;20154;-76
2023/08/24 11:22:56;;;;;;;3.50;1.88;;;;;;;25.65;59.96;100386.47;4829484;29;20109;-76
2023/08/24 11:26:01;;;;;;;4.20;1.92;;;;;;;25.72;56.40;100382.88;4830516;29;20045;-76
2023/08/24 11:29:05;;;;;;;10.57;2.38;;;;;;;25.79;57.65;100374.94;4843427;29;20041;-75
2023/08/24 11:32:08;;;;;;;5.65;1.90;;;;;;;25.83;55.99;100372.78;4848090;29;20041;-75
2023/08/24 11:35:12;;;;;;;3.42;1.67;;;;;;;25.85;56.23;100370.75;4838656;29;20053;-75
2023/08/24 11:38:16;;;;;;;5.32;2.10;;;;;;;25.95;57.91;100373.97;4831453;29;20118;-76
2023/08/24 11:41:21;;;;;;;5.32;1.70;;;;;;;26.02;57.42;100364.19;4830766;29;20517;-76
2023/08/24 11:44:24;;;;;;;5.93;2.05;;;;;;;26.02;54.75;100361.50;4840855;29;20049;-75
2023/08/24 11:47:28;;;;;;;4.70;2.08;;;;;;;26.11;56.96;100365.75;4840936;29;20102;-76
2023/08/24 11:50:34;;;;;;;4.57;1.73;;;;;;;26.17;56.87;100370.38;4840747;29;20129;-75
2023/08/24 11:53:47;;;;;;;3.63;2.08;;;;;;;26.18;54.30;100366.66;4840779;29;20088;-75
2023/08/24 11:56:52;;;;;;;5.78;2.13;;;;;;;26.14;52.43;100353.84;4839862;29;20138;-75
2023/08/24 11:59:55;;;;;;;5.55;2.10;;;;;;;26.15;52.66;100340.25;4832533;29;20054;-75
2023/08/24 12:03:03;;;;;;;3.55;1.65;;;;;;;26.21;54.56;100341.34;4830584;29;20225;-77
2023/08/24 12:06:16;;;;;;;3.60;1.75;;;;;;;26.22;54.38;100334.97;4832161;29;20101;-77
2023/08/24 12:09:19;;;;;;;4.32;1.75;;;;;;;26.26;55.81;100335.44;4829832;29;20049;-77
2023/08/24 12:12:28;;;;;;;5.35;1.80;;;;;;;26.24;52.30;100334.81;4828894;29;20064;-79
2023/08/24 12:15:35;;;;;;;4.32;2.17;;;;;;;26.13;50.79;100334.25;4831915;29;20052;-77
2023/08/24 12:19:03;;;;;;;4.82;2.08;;;;;;;26.10;54.71;100341.81;4840363;29;20222;-76
2023/08/24 12:22:07;;;;;;;5.25;1.98;;;;;;;26.05;55.15;100336.19;4840689;29;20556;-77
2023/08/24 12:25:10;;;;;;;3.08;1.85;;;;;;;25.93;55.99;100333.16;4840452;29;20167;-77
2023/08/24 12:28:17;;;;;;;6.13;2.47;;;;;;;25.87;62.75;100358.00;4840783;29;20397;-77
2023/08/24 12:31:27;;;;;;;5.25;2.42;;;;;;;25.74;64.12;100375.47;4853739;29;20052;-77
2023/08/24 12:34:31;;;;;;;3.47;2.22;;;;;;;25.61;62.25;100383.31;4858936;29;20140;-77
2023/08/24 12:37:36;;;;;;;4.32;2.30;;;;;;;25.53;62.26;100383.41;4858798;29;20125;-80
2023/08/24 12:40:40;;;;;;;5.20;2.08;;;;;;;25.45;64.56;100392.31;4859125;29;20460;-77
2023/08/24 12:43:44;;;;;;;5.18;2.40;;;;;;;25.38;64.60;100390.56;4858917;29;20056;-79
2023/08/24 12:46:48;;;;;;;4.32;2.22;;;;;;;25.28;65.33;100391.63;4858893;29;20057;-76
2023/08/24 12:49:52;;;;;;;5.13;2.28;;;;;;;25.16;68.98;100392.22;4858990;29;20043;-80
2023/08/24 12:52:57;;;;;;;3.50;2.10;;;;;;;24.92;65.86;100411.91;4855171;29;20141;-80
2023/08/24 12:56:29;;;;;;;4.05;2.33;;;;;;;24.85;66.51;100432.34;4829318;29;20115;-78
2023/08/24 12:59:36;;;;;;;6.20;2.63;;;;;;;24.77;66.54;100426.03;4831340;29;20145;-77
2023/08/24 13:02:43;;;;;;;7.18;2.47;;;;;;;24.73;66.05;100422.06;4830450;29;20513;-80
2023/08/24 13:05:47;;;;;;;6.30;2.05;;;;;;;24.70;66.49;100411.69;4831888;29;20473;-78
2023/08/24 13:08:53;;;;;;;3.78;2.08;;;;;;;24.61;66.98;100407.41;4831744;29;20072;-77
2023/08/24 13:11:56;;;;;;;4.10;2.30;;;;;;;24.59;71.06;100444.16;4831843;29;20124;-76
2023/08/24 13:14:59;;;;;;;5.80;2.42;;;;;;;24.48;72.09;100449.91;4831400;29;20173;-79
2023/08/24 13:18:03;;;;;;;4.63;2.33;;;;;;;24.38;73.03;100447.38;4828523;29;20061;-84
2023/08/24 13:21:09;;;;;;;5.15;2.30;;;;;;;24.27;74.46;100451.25;4821738;29;20097;-76
2023/08/24 13:24:13;;;;;;;7.53;3.42;;;;;;;24.11;73.90;100462.78;4824928;29;20566;-76
2023/08/24 13:27:16;;;;;;;6.35;3.00;;;;;;;24.03;76.20;100470.00;4824475;29;20049;-79
2023/08/24 13:30:19;;;;;;;6.50;2.70;;;;;;;23.88;76.19;100489.38;4834798;29;20098;-80
2023/08/24 13:33:23;;;;;;;4.57;2.55;;;;;;;23.65;75.90;100493.69;4823656;29;20117;-83
2023/08/24 13:36:27;;;;;;;4.68;2.92;;;;;;;23.50;75.79;100495.31;4824733;29;20102;-83
2023/08/24 13:39:34;;;;;;;6.38;2.60;;;;;;;23.53;76.58;100470.97;4824368;29;20113;-80
2023/08/24 13:42:37;;;;;;;6.32;2.80;;;;;;;23.55;77.66;100419.13;4828535;29;20060;-81
2023/08/24 13:45:41;;;;;;;4.50;2.47;;;;;;;23.56;77.70;100346.03;4832848;29;20541;-85
2023/08/24 13:48:46;;;;;;;5.60;2.85;;;;;;;23.52;79.57;100290.53;4833934;29;20060;-86
2023/08/24 13:51:52;;;;;;;8.73;2.58;;;;;;;23.51;79.44;100270.16;4834467;29;20085;-83
2023/08/24 13:54:59;;;;;;;4.13;2.13;;;;;;;23.50;79.05;100272.00;4832629;29;20493;-81
2023/08/24 13:58:03;;;;;;;6.15;2.72;;;;;;;23.51;79.27;100262.97;4834188;29;20149;-81
2023/08/24 14:01:08;;;;;;;4.03;2.20;;;;;;;23.52;79.88;100247.81;4833588;29;20126;-81
2023/08/24 14:04:13;;;;;;;5.82;3.13;;;;;;;23.55;79.94;100224.28;4834445;29;20129;-81
2023/08/24 14:07:17;;;;;;;3.75;2.63;;;;;;;23.57;81.79;100229.44;4833964;29;20077;-81
2023/08/24 14:10:20;;;;;;;4.93;2.25;;;;;;;23.55;81.73;100224.28;4833905;29;20206;-80
2023/08/24 14:13:24;;;;;;;4.95;2.95;;;;;;;23.56;81.41;100238.47;4833656;29;20105;-81
2023/08/24 14:16:28;;;;;;;8.75;3.20;;;;;;;23.56;81.83;100238.47;4834000;29;20102;-79
2023/08/24 14:19:33;;;;;;;6.43;2.72;;;;;;;23.56;81.52;100217.94;4831942;29;20049;-79
2023/08/24 14:22:36;;;;;;;4.65;2.28;;;;;;;23.58;81.15;100241.78;4833577;29;20045;-78
2023/08/24 14:25:41;;;;;;;6.50;2.67;;;;;;;23.47;79.85;100259.00;4833519;29;20054;-78
2023/08/24 14:29:21;;;;;;;6.10;2.60;;;;;;;23.43;78.64;100271.00;4831837;29;20048;-78
2023/08/24 14:32:29;;;;;;;8.10;3.17;;;;;;;23.43;79.29;100282.53;4831876;29;20561;-79
2023/08/24 14:35:37;;;;;;;7.85;2.88;;;;;;;23.44;80.00;100302.84;4831063;29;20152;-80
2023/08/24 14:38:41;;;;;;;5.75;2.45;;;;;;;23.37;79.99;100343.72;4829918;29;20097;-79
2023/08/24 14:41:45;;;;;;;5.18;2.47;;;;;;;23.29;79.55;100370.41;4838102;29;20054;-79